createdAt,value
2022-09-20T00:00:47.174Z,0.90
2022-09-20T00:03:52.596Z,1.10
2022-09-20T00:06:54.651Z,1.15
2022-09-20T00:09:57.964Z,0.82
2022-09-20T00:13:00.029Z,1.10
2022-09-20T00:16:06.586Z,0.88
2022-09-20T00:19:15.558Z,1.25
2022-09-20T00:22:17.950Z,1.33
2022-09-20T00:25:20.611Z,1.17
2022-09-20T00:28:23.339Z,1.00
2022-09-20T00:31:25.969Z,1.05
2022-09-20T00:34:46.783Z,1.20
2022-09-20T00:37:48.858Z,1.50
2022-09-20T00:40:51.189Z,1.15
2022-09-20T00:43:53.623Z,1.02
2022-09-20T00:46:56.184Z,0.90
2022-09-20T00:50:21.237Z,0.93
2022-09-20T00:53:29.010Z,0.82
2022-09-20T00:56:34.683Z,0.70
2022-09-20T00:59:42.590Z,0.70
2022-09-20T01:02:57.096Z,0.70
2022-09-20T01:06:03.816Z,0.90
2022-09-20T01:09:07.257Z,0.77
2022-09-20T01:12:15.021Z,0.90
2022-09-20T01:15:18.172Z,0.77
2022-09-20T01:18:23.211Z,0.93
2022-09-20T01:21:27.775Z,1.00
2022-09-20T01:24:40.326Z,0.75
2022-09-20T01:27:45.543Z,0.90
2022-09-20T01:31:27.068Z,0.80
2022-09-20T01:34:37.537Z,0.88
2022-09-20T01:38:17.758Z,0.88
2022-09-20T01:41:28.638Z,0.80
2022-09-20T01:44:41.414Z,0.80
2022-09-20T01:47:54.835Z,0.68
2022-09-20T01:51:12.667Z,0.80
2022-09-20T01:54:36.296Z,0.80
2022-09-20T01:57:52.029Z,0.85
2022-09-20T02:01:06.022Z,0.73
2022-09-20T02:04:20.640Z,0.88
2022-09-20T02:07:41.850Z,0.80
2022-09-20T02:10:49.766Z,0.70
2022-09-20T02:13:52.078Z,1.00
2022-09-20T02:16:57.670Z,0.93
2022-09-20T02:20:08.126Z,0.77
2022-09-20T02:23:13.475Z,0.70
2022-09-20T02:26:41.181Z,0.62
2022-09-20T02:30:07.944Z,0.80
2022-09-20T02:33:28.196Z,1.02
2022-09-20T02:36:47.178Z,0.80
2022-09-20T02:40:15.689Z,1.17
2022-09-20T02:43:46.364Z,1.20
2022-09-20T02:47:09.842Z,0.90
2022-09-20T02:50:12.903Z,0.88
2022-09-20T02:53:24.225Z,0.90
2022-09-20T02:56:46.335Z,1.30
2022-09-20T02:59:56.914Z,1.10
2022-09-20T03:03:13.951Z,1.10
2022-09-20T03:06:31.571Z,0.77
2022-09-20T03:10:06.946Z,1.00
2022-09-20T03:13:40.203Z,1.00
2022-09-20T03:17:15.443Z,1.00
2022-09-20T03:20:29.191Z,1.10
2022-09-20T03:23:55.750Z,1.00
2022-09-20T03:27:10.364Z,1.17
2022-09-20T03:30:23.169Z,1.30
2022-09-20T03:33:39.729Z,0.90
2022-09-20T03:37:07.642Z,1.00
2022-09-20T03:40:29.002Z,1.20
2022-09-20T03:43:42.967Z,1.02
2022-09-20T03:46:47.514Z,0.85
2022-09-20T03:50:12.323Z,1.10
2022-09-20T03:53:23.668Z,1.00
2022-09-20T03:56:50.098Z,1.12
2022-09-20T04:00:31.620Z,1.10
2022-09-20T04:04:00.283Z,1.12
2022-09-20T04:07:27.799Z,1.20
2022-09-20T04:10:59.760Z,1.05
2022-09-20T04:14:36.106Z,1.12
2022-09-20T04:18:09.662Z,1.17
2022-09-20T04:21:25.844Z,1.00
2022-09-20T04:24:40.329Z,1.70
2022-09-20T04:27:45.699Z,1.25
2022-09-20T04:30:55.330Z,1.58
2022-09-20T04:33:59.742Z,2.22
2022-09-20T04:37:04.942Z,1.50
2022-09-20T04:40:13.400Z,1.98
2022-09-20T04:43:51.119Z,1.95
2022-09-20T04:47:36.208Z,2.10
2022-09-20T04:50:47.971Z,1.65
2022-09-20T04:54:22.897Z,1.62
2022-09-20T04:57:46.892Z,1.90
2022-09-20T05:00:48.946Z,1.23
2022-09-20T05:04:00.151Z,1.70
2022-09-20T05:07:18.256Z,1.70
2022-09-20T05:10:48.283Z,1.37
2022-09-20T05:14:17.328Z,1.50
2022-09-20T05:17:33.168Z,1.62
2022-09-20T05:20:50.398Z,1.62
2022-09-20T05:24:05.547Z,1.50
2022-09-20T05:27:24.191Z,1.20
2022-09-20T05:30:43.343Z,1.60
2022-09-20T05:33:57.065Z,1.73
2022-09-20T05:37:05.096Z,1.30
2022-09-20T05:40:30.404Z,1.70
2022-09-20T05:43:38.419Z,1.40
2022-09-20T05:46:57.073Z,1.35
2022-09-20T05:50:31.439Z,1.27
2022-09-20T05:53:42.971Z,1.40
2022-09-20T05:56:59.899Z,1.17
2022-09-20T06:00:07.428Z,1.70
2022-09-20T06:03:36.619Z,1.30
2022-09-20T06:07:02.530Z,1.50
2022-09-20T06:10:07.688Z,0.98
2022-09-20T06:13:39.060Z,1.60
2022-09-20T06:17:24.260Z,1.40
2022-09-20T06:20:44.677Z,1.37
2022-09-20T06:23:47.186Z,1.40
2022-09-20T06:26:53.734Z,1.55
2022-09-20T06:30:01.224Z,0.95
2022-09-20T06:33:06.519Z,1.40
2022-09-20T06:36:50.817Z,1.33
2022-09-20T06:40:41.895Z,1.00
2022-09-20T06:46:46.139Z,1.35
2022-09-20T06:49:50.452Z,1.15
2022-09-20T06:52:53.579Z,0.88
2022-09-20T06:55:56.667Z,1.00
2022-09-20T06:58:59.180Z,0.95
2022-09-20T07:02:01.320Z,1.12
2022-09-20T07:05:03.943Z,1.20
2022-09-20T07:08:06.686Z,1.27
2022-09-20T07:11:17.312Z,1.05
2022-09-20T07:14:19.482Z,1.20
2022-09-20T07:17:22.283Z,1.10
2022-09-20T07:20:24.666Z,0.93
2022-09-20T07:23:29.683Z,0.90
2022-09-20T07:26:32.306Z,1.10
2022-09-20T07:29:37.337Z,1.02
2022-09-20T07:32:41.034Z,1.20
2022-09-20T07:35:43.674Z,1.23
2022-09-20T07:38:50.487Z,1.33
2022-09-20T07:41:53.219Z,1.30
2022-09-20T07:44:55.914Z,1.33
2022-09-20T07:47:59.370Z,1.30
2022-09-20T07:51:08.728Z,1.20
2022-09-20T07:54:12.181Z,1.20
2022-09-20T07:57:14.938Z,1.20
2022-09-20T08:00:18.438Z,1.20
2022-09-20T08:03:21.701Z,1.20
2022-09-20T08:06:24.596Z,1.25
2022-09-20T08:09:27.180Z,1.30
2022-09-20T08:16:02.313Z,1.30
2022-09-20T08:19:04.719Z,1.37
2022-09-20T08:22:07.239Z,1.25
2022-09-20T08:25:09.525Z,1.05
2022-09-20T08:28:11.844Z,0.85
2022-09-20T08:31:19.314Z,1.02
2022-09-20T08:34:21.984Z,1.27
2022-09-20T08:37:24.073Z,1.00
2022-09-20T08:40:30.046Z,1.00
2022-09-20T08:43:39.730Z,1.00
2022-09-20T08:46:46.264Z,0.80
2022-09-20T08:49:56.762Z,1.00
2022-09-20T08:53:05.910Z,1.05
2022-09-20T08:59:18.863Z,0.82
2022-09-20T09:02:22.745Z,0.70
2022-09-20T09:05:43.137Z,0.77
2022-09-20T09:08:49.467Z,1.10
2022-09-20T09:11:54.173Z,0.82
2022-09-20T09:15:21.437Z,0.68
2022-09-20T09:18:32.076Z,0.80
2022-09-20T09:21:34.394Z,0.77
2022-09-20T09:24:36.929Z,0.65
2022-09-20T09:28:02.136Z,0.75
2022-09-20T09:31:28.913Z,0.80
2022-09-20T09:34:38.855Z,0.70
2022-09-20T09:37:54.623Z,0.90
2022-09-20T09:40:59.859Z,0.75
2022-09-20T09:44:10.948Z,0.75
2022-09-20T09:47:27.614Z,0.93
2022-09-20T09:50:33.594Z,0.73
2022-09-20T09:53:36.690Z,0.90
2022-09-20T09:56:57.339Z,1.20
2022-09-20T10:00:23.207Z,0.88
2022-09-20T10:03:40.648Z,1.23
2022-09-20T10:07:01.157Z,0.75
2022-09-20T10:10:12.569Z,0.85
2022-09-20T10:13:40.432Z,1.17
2022-09-20T10:17:02.038Z,1.00
2022-09-20T10:20:28.539Z,1.10
2022-09-20T10:24:03.724Z,1.00
2022-09-20T10:27:38.533Z,1.05
2022-09-20T10:30:58.335Z,0.90
2022-09-20T10:34:15.925Z,1.10
2022-09-20T10:37:49.038Z,1.00
2022-09-20T10:41:22.688Z,0.80
2022-09-20T10:45:07.911Z,0.82
2022-09-20T10:48:31.561Z,0.90
2022-09-20T10:51:53.683Z,0.60
2022-09-20T10:55:30.453Z,0.80
2022-09-20T10:58:43.546Z,1.02
2022-09-20T11:02:08.303Z,0.70
2022-09-20T11:05:38.868Z,1.00
2022-09-20T11:08:43.067Z,1.02
2022-09-20T11:11:52.064Z,1.00
2022-09-20T11:15:04.420Z,0.70
2022-09-20T11:18:23.565Z,1.00
2022-09-20T11:21:37.673Z,0.95
2022-09-20T11:24:48.985Z,0.77
2022-09-20T11:28:01.672Z,0.82
2022-09-20T11:31:15.298Z,0.70
2022-09-20T11:34:33.596Z,1.30
2022-09-20T11:37:42.649Z,1.62
2022-09-20T11:40:53.630Z,1.40
2022-09-20T11:44:01.555Z,0.85
2022-09-20T11:47:26.607Z,1.00
2022-09-20T11:51:02.156Z,0.80
2022-09-20T11:54:33.221Z,1.30
2022-09-20T11:57:35.659Z,1.35
2022-09-20T12:00:45.044Z,1.27
2022-09-20T12:04:08.708Z,1.33
2022-09-20T12:07:40.228Z,1.30
2022-09-20T12:10:44.149Z,1.10
2022-09-20T12:14:05.174Z,0.60
2022-09-20T12:17:46.047Z,1.10
2022-09-20T12:20:58.820Z,0.80
2022-09-20T12:24:17.587Z,0.80
2022-09-20T12:27:29.330Z,0.80
2022-09-20T12:30:33.227Z,1.10
2022-09-20T12:33:59.912Z,1.02
2022-09-20T12:37:04.117Z,1.40
2022-09-20T12:40:16.086Z,1.12
2022-09-20T12:43:22.349Z,1.27
2022-09-20T12:46:31.806Z,0.90
2022-09-20T12:50:05.225Z,0.80
2022-09-20T12:53:16.711Z,0.80
2022-09-20T12:56:28.375Z,0.70
2022-09-20T12:59:31.089Z,1.08
2022-09-20T13:02:52.340Z,0.70
2022-09-20T13:06:06.754Z,0.80
2022-09-20T13:09:10.382Z,0.52
2022-09-20T13:12:16.220Z,0.40
2022-09-20T13:15:21.502Z,0.60
2022-09-20T13:18:26.207Z,0.80
2022-09-20T13:21:28.650Z,0.57
2022-09-20T13:24:39.300Z,0.65
2022-09-20T13:28:00.106Z,0.55
2022-09-20T13:31:22.138Z,0.88
2022-09-20T13:34:25.932Z,0.62
2022-09-20T13:37:28.063Z,0.98
2022-09-20T13:40:42.297Z,0.82
2022-09-20T13:43:46.884Z,0.70
2022-09-20T13:46:49.499Z,0.90
2022-09-20T13:49:51.996Z,0.50
2022-09-20T13:52:57.042Z,0.60
2022-09-20T13:55:59.436Z,0.70
2022-09-20T13:59:05.217Z,0.60
2022-09-20T14:02:19.225Z,0.50
2022-09-20T14:05:25.209Z,0.85
2022-09-20T14:08:40.704Z,0.47
2022-09-20T14:11:43.260Z,0.57
2022-09-20T14:14:46.372Z,0.60
2022-09-20T14:17:52.074Z,0.47
2022-09-20T14:20:55.416Z,0.50
2022-09-20T14:24:18.882Z,0.50
2022-09-20T14:27:22.307Z,0.52
2022-09-20T14:30:31.162Z,0.50
2022-09-20T14:36:35.675Z,0.35
2022-09-20T14:39:48.015Z,0.45
2022-09-20T14:42:58.369Z,0.30
2022-09-20T14:46:19.075Z,0.40
2022-09-20T14:49:24.223Z,0.30
2022-09-20T14:52:26.769Z,0.50
2022-09-20T14:55:37.192Z,0.35
2022-09-20T14:59:06.430Z,0.50
2022-09-20T15:02:14.276Z,0.37
2022-09-20T15:05:25.984Z,0.40
2022-09-20T15:08:28.471Z,0.60
2022-09-20T15:11:30.592Z,0.50
2022-09-20T15:14:37.523Z,0.40
2022-09-20T15:17:41.615Z,0.40
2022-09-20T15:20:44.421Z,0.70
2022-09-20T15:23:46.502Z,0.75
2022-09-20T15:26:49.107Z,0.88
2022-09-20T15:29:51.210Z,0.80
2022-09-20T15:32:53.615Z,0.88
2022-09-20T15:35:55.677Z,0.70
2022-09-20T15:38:58.464Z,0.68
2022-09-20T15:42:01.428Z,0.77
2022-09-20T15:45:07.199Z,0.62
2022-09-20T15:48:12.398Z,0.82
2022-09-20T15:51:15.497Z,0.60
2022-09-20T15:54:17.970Z,0.60
2022-09-20T15:57:21.084Z,0.50
2022-09-20T16:00:23.147Z,0.80
2022-09-20T16:03:30.587Z,0.77
2022-09-20T16:06:32.852Z,0.80
2022-09-20T16:09:35.992Z,0.90
2022-09-20T16:12:38.107Z,1.10
2022-09-20T16:15:40.453Z,1.20
2022-09-20T16:19:01.368Z,1.02
2022-09-20T16:22:04.508Z,1.58
2022-09-20T16:25:07.252Z,1.52
2022-09-20T16:28:09.606Z,1.52
2022-09-20T16:31:47.246Z,1.10
2022-09-20T16:34:49.814Z,1.10
2022-09-20T16:37:51.998Z,1.17
2022-09-20T16:40:55.647Z,1.30
2022-09-20T16:43:57.938Z,2.00
2022-09-20T16:47:01.059Z,1.08
2022-09-20T16:50:03.364Z,1.15
2022-09-20T16:53:05.752Z,1.33
2022-09-20T16:56:07.826Z,1.35
2022-09-20T16:59:10.706Z,1.52
2022-09-20T17:02:13.359Z,1.17
2022-09-20T17:05:16.078Z,1.37
2022-09-20T17:08:18.219Z,1.37
2022-09-20T17:11:23.969Z,1.48
2022-09-20T17:14:26.060Z,1.10
2022-09-20T17:17:28.415Z,1.12
2022-09-20T17:20:30.483Z,1.40
2022-09-20T17:23:33.610Z,1.08
2022-09-20T17:26:40.151Z,1.40
2022-09-20T17:29:42.542Z,1.55
2022-09-20T17:32:48.095Z,1.33
2022-09-20T17:35:51.733Z,1.37
2022-09-20T17:38:56.568Z,1.40
2022-09-20T17:42:02.028Z,1.45
2022-09-20T17:45:04.569Z,1.40
2022-09-20T17:48:08.408Z,1.37
2022-09-20T17:51:12.675Z,1.48
2022-09-20T17:54:15.608Z,1.17
2022-09-20T17:57:17.716Z,0.88
2022-09-20T18:00:20.253Z,0.70
2022-09-20T18:03:24.040Z,0.93
2022-09-20T18:06:27.665Z,0.95
2022-09-20T18:09:30.023Z,1.05
2022-09-20T18:12:32.158Z,1.37
2022-09-20T18:15:34.934Z,1.40
2022-09-20T18:18:38.568Z,1.48
2022-09-20T18:21:40.991Z,0.93
2022-09-20T18:24:43.061Z,1.40
2022-09-20T18:27:46.083Z,1.20
2022-09-20T18:30:48.575Z,1.20
2022-09-20T18:33:55.625Z,1.10
2022-09-20T18:36:59.769Z,1.33
2022-09-20T18:40:02.451Z,1.10
2022-09-20T18:43:07.703Z,1.12
2022-09-20T18:46:13.695Z,0.93
2022-09-20T18:49:16.930Z,1.20
2022-09-20T18:52:23.963Z,1.25
2022-09-20T18:55:26.229Z,1.20
2022-09-20T18:58:28.780Z,0.95
2022-09-20T19:02:01.189Z,0.85
2022-09-20T19:05:14.756Z,1.10
2022-09-20T19:08:35.468Z,1.10
2022-09-20T19:11:43.720Z,1.10
2022-09-20T19:15:23.369Z,1.07
2022-09-20T19:18:38.974Z,0.98
2022-09-20T19:22:24.172Z,1.00
2022-09-20T19:25:40.723Z,1.40
2022-09-20T19:28:43.097Z,1.67
2022-09-20T19:31:51.281Z,1.23
2022-09-20T19:35:01.951Z,1.10
2022-09-20T19:38:21.891Z,1.17
2022-09-20T19:41:58.103Z,1.30
2022-09-20T19:45:15.311Z,1.00
2022-09-20T19:48:28.452Z,0.80
2022-09-20T19:51:32.508Z,0.85
2022-09-20T19:54:35.487Z,0.98
2022-09-20T19:57:49.518Z,0.93
2022-09-20T20:00:52.581Z,1.27
2022-09-20T20:03:55.386Z,1.12
2022-09-20T20:07:21.232Z,1.00
2022-09-20T20:11:05.418Z,1.10
2022-09-20T20:14:14.179Z,1.00
2022-09-20T20:17:26.277Z,0.95
2022-09-20T20:20:34.926Z,0.90
2022-09-20T20:23:50.152Z,1.02
2022-09-20T20:26:52.243Z,1.20
2022-09-20T20:29:55.493Z,1.12
2022-09-20T20:32:58.124Z,1.30
2022-09-20T20:36:02.192Z,1.23
2022-09-20T20:39:04.358Z,1.20
2022-09-20T20:42:08.390Z,1.12
2022-09-20T20:45:11.721Z,1.52
2022-09-20T20:48:14.110Z,0.88
2022-09-20T20:51:18.643Z,1.30
2022-09-20T20:54:21.196Z,1.12
2022-09-20T20:57:23.391Z,0.98
2022-09-20T21:00:29.973Z,1.30
2022-09-20T21:03:32.141Z,1.30
2022-09-20T21:06:36.811Z,1.25
2022-09-20T21:09:39.695Z,1.17
2022-09-20T21:12:42.091Z,1.30
2022-09-20T21:15:44.626Z,1.35
2022-09-20T21:18:48.057Z,1.15
2022-09-20T21:21:50.140Z,1.02
2022-09-20T21:24:53.042Z,1.30
2022-09-20T21:27:55.177Z,1.08
2022-09-20T21:31:01.606Z,1.15
2022-09-20T21:37:10.527Z,1.30
2022-09-20T21:40:12.741Z,1.35
2022-09-20T21:43:15.292Z,1.45
2022-09-20T21:46:29.159Z,1.35
2022-09-20T21:49:31.612Z,1.52
2022-09-20T21:52:34.490Z,1.37
2022-09-20T21:55:36.922Z,1.33
2022-09-20T21:58:40.133Z,1.37
2022-09-20T22:01:42.503Z,1.65
2022-09-20T22:04:44.881Z,1.45
2022-09-20T22:07:46.971Z,1.58
2022-09-20T22:10:56.874Z,2.05
2022-09-20T22:13:59.671Z,1.75
2022-09-20T22:17:02.078Z,2.10
2022-09-20T22:20:04.574Z,1.70
2022-09-20T22:23:07.140Z,1.67
2022-09-20T22:26:14.552Z,2.17
2022-09-20T22:29:17.517Z,1.48
2022-09-20T22:32:19.699Z,2.08
2022-09-20T22:35:22.565Z,1.40
2022-09-20T22:38:24.628Z,1.67
2022-09-20T22:41:28.008Z,1.80
2022-09-20T22:44:30.092Z,1.77
2022-09-20T22:47:32.492Z,1.52
2022-09-20T22:50:34.567Z,1.90
2022-09-20T22:53:37.118Z,1.98
2022-09-20T22:56:41.294Z,1.90
2022-09-20T22:59:43.727Z,1.50
2022-09-20T23:02:45.799Z,1.50
2022-09-20T23:05:48.179Z,1.58
2022-09-20T23:08:52.454Z,1.77
2022-09-20T23:11:55.344Z,1.50
2022-09-20T23:14:57.425Z,1.67
2022-09-20T23:17:59.752Z,1.58
2022-09-20T23:21:01.936Z,1.70
2022-09-20T23:24:06.726Z,1.50
2022-09-20T23:27:08.814Z,1.65
2022-09-20T23:30:11.458Z,1.70
2022-09-20T23:33:13.568Z,1.70
2022-09-20T23:36:16.535Z,1.50
2022-09-20T23:39:18.617Z,2.22
2022-09-20T23:42:21.145Z,1.80
2022-09-20T23:45:23.219Z,1.65
2022-09-20T23:48:25.955Z,1.80
2022-09-20T23:51:32.523Z,1.83
2022-09-20T23:54:34.934Z,1.73
2022-09-20T23:57:37.962Z,1.52
